createdAt,value
2018-04-18T00:00:28.891Z,5.87
2018-04-18T00:02:56.155Z,5.10
2018-04-18T00:05:23.417Z,5.33
2018-04-18T00:07:50.676Z,4.97
2018-04-18T00:10:17.928Z,5.17
2018-04-18T00:12:45.194Z,5.30
2018-04-18T00:15:12.450Z,6.23
2018-04-18T00:17:39.727Z,5.53
2018-04-18T00:20:06.987Z,5.10
2018-04-18T00:22:34.259Z,5.60
2018-04-18T00:25:01.507Z,5.43
2018-04-18T00:27:28.758Z,5.70
2018-04-18T00:29:56.036Z,5.17
2018-04-18T00:32:23.291Z,5.43
2018-04-18T00:34:50.546Z,5.33
2018-04-18T00:37:17.820Z,5.43
2018-04-18T00:39:45.080Z,6.20
2018-04-18T00:42:12.342Z,5.20
2018-04-18T00:44:39.603Z,5.00
2018-04-18T00:47:06.864Z,4.97
2018-04-18T00:49:34.131Z,5.50
2018-04-18T00:52:01.384Z,6.50
2018-04-18T00:54:28.660Z,5.90
2018-04-18T00:56:55.918Z,5.40
2018-04-18T00:59:23.183Z,5.80
2018-04-18T01:01:50.434Z,6.13
2018-04-18T01:04:17.699Z,5.90
2018-04-18T01:06:44.947Z,5.87
2018-04-18T01:09:12.223Z,5.50
2018-04-18T01:11:39.477Z,6.07
2018-04-18T01:14:06.746Z,7.10
2018-04-18T01:16:34.007Z,6.27
2018-04-18T01:19:01.267Z,5.30
2018-04-18T01:21:28.543Z,6.20
2018-04-18T01:23:55.795Z,6.77
2018-04-18T01:26:23.067Z,6.37
2018-04-18T01:28:50.320Z,6.60
2018-04-18T01:31:17.604Z,6.23
2018-04-18T01:33:44.859Z,6.13
2018-04-18T01:36:12.137Z,6.17
2018-04-18T01:38:39.388Z,5.70
2018-04-18T01:41:06.658Z,5.90
2018-04-18T01:43:33.912Z,5.83
2018-04-18T01:46:01.179Z,6.50
2018-04-18T01:48:28.443Z,5.93
2018-04-18T01:50:55.704Z,7.43
2018-04-18T01:53:22.984Z,5.83
2018-04-18T01:55:50.242Z,6.13
2018-04-18T01:58:17.516Z,5.40
2018-04-18T02:00:44.775Z,6.13
2018-04-18T02:03:12.039Z,6.07
2018-04-18T02:05:39.291Z,5.57
2018-04-18T02:08:06.572Z,7.30
2018-04-18T02:10:33.833Z,6.33
2018-04-18T02:13:01.099Z,6.13
2018-04-18T02:15:28.346Z,5.53
2018-04-18T02:17:55.615Z,6.07
2018-04-18T02:20:22.876Z,6.30
2018-04-18T02:22:50.151Z,6.30
2018-04-18T02:25:17.407Z,5.53
2018-04-18T02:27:44.658Z,6.80
2018-04-18T02:30:11.931Z,5.70
2018-04-18T02:32:39.181Z,5.57
2018-04-18T02:35:06.455Z,5.27
2018-04-18T02:37:33.711Z,5.93
2018-04-18T02:40:00.983Z,6.27
2018-04-18T02:42:28.231Z,6.10
2018-04-18T02:44:55.504Z,5.33
2018-04-18T02:47:22.751Z,5.50
2018-04-18T02:49:50.033Z,5.10
2018-04-18T02:52:17.283Z,6.37
2018-04-18T02:54:44.551Z,6.20
2018-04-18T02:57:11.812Z,5.87
2018-04-18T02:59:39.098Z,5.93
2018-04-18T03:02:06.359Z,5.40
2018-04-18T03:04:33.615Z,5.40
2018-04-18T03:07:00.888Z,6.50
2018-04-18T03:09:28.149Z,6.17
2018-04-18T03:11:55.418Z,5.90
2018-04-18T03:14:22.680Z,5.50
2018-04-18T03:16:49.948Z,5.40
2018-04-18T03:19:17.203Z,5.83
2018-04-18T03:21:44.476Z,6.00
2018-04-18T03:24:11.731Z,5.50
2018-04-18T03:26:39.014Z,6.23
2018-04-18T03:29:06.250Z,5.33
2018-04-18T03:31:33.508Z,5.93
2018-04-18T03:34:00.787Z,5.63
2018-04-18T03:36:28.035Z,5.40
2018-04-18T03:38:55.304Z,5.90
2018-04-18T03:41:22.564Z,5.63
2018-04-18T03:43:49.962Z,5.63
2018-04-18T03:46:17.235Z,5.50
2018-04-18T03:48:44.508Z,5.43
2018-04-18T03:51:11.760Z,5.53
2018-04-18T03:53:39.028Z,6.27
2018-04-18T03:56:06.289Z,6.10
2018-04-18T03:58:33.566Z,6.90
2018-04-18T04:01:00.824Z,6.13
2018-04-18T04:03:28.099Z,6.17
2018-04-18T04:05:55.356Z,5.87
2018-04-18T04:08:22.606Z,6.03
2018-04-18T04:10:49.871Z,5.07
2018-04-18T04:13:17.126Z,5.60
2018-04-18T04:15:44.413Z,6.20
2018-04-18T04:18:17.412Z,6.43
2018-04-18T04:20:50.540Z,6.40
2018-04-18T04:23:23.598Z,6.00
2018-04-18T04:25:50.863Z,6.40
2018-04-18T04:28:18.124Z,6.10
2018-04-18T04:30:45.401Z,5.40
2018-04-18T04:33:12.654Z,5.33
2018-04-18T04:35:39.922Z,5.70
2018-04-18T04:38:07.184Z,5.60
2018-04-18T04:40:34.451Z,5.30
2018-04-18T04:43:01.712Z,5.73
2018-04-18T04:45:28.989Z,6.43
2018-04-18T04:47:56.250Z,6.03
2018-04-18T04:50:23.518Z,5.60
2018-04-18T04:52:50.776Z,4.73
2018-04-18T04:55:18.034Z,5.20
2018-04-18T04:57:45.300Z,5.03
2018-04-18T05:00:12.554Z,5.10
2018-04-18T05:02:39.822Z,4.60
2018-04-18T05:05:07.079Z,5.17
2018-04-18T05:07:34.355Z,4.90
2018-04-18T05:10:01.611Z,5.07
2018-04-18T05:12:28.884Z,5.20
2018-04-18T05:14:56.142Z,5.10
2018-04-18T05:17:23.408Z,5.07
2018-04-18T05:19:50.654Z,5.17
2018-04-18T05:22:17.936Z,5.07
2018-04-18T05:24:45.196Z,5.00
2018-04-18T05:27:12.467Z,5.10
2018-04-18T05:29:39.715Z,5.10
2018-04-18T05:32:06.966Z,4.93
2018-04-18T05:34:34.232Z,5.23
2018-04-18T05:37:01.483Z,5.17
2018-04-18T05:39:28.764Z,5.40
2018-04-18T05:41:56.011Z,5.27
2018-04-18T05:44:23.271Z,5.00
2018-04-18T05:46:50.543Z,5.17
2018-04-18T05:49:17.818Z,4.63
2018-04-18T05:51:45.066Z,4.37
2018-04-18T05:54:12.334Z,4.93
2018-04-18T05:56:39.582Z,4.97
2018-04-18T05:59:06.867Z,4.40
2018-04-18T06:01:34.123Z,5.13
2018-04-18T06:04:01.396Z,5.03
2018-04-18T06:06:28.642Z,4.60
2018-04-18T06:08:55.915Z,4.90
2018-04-18T06:11:23.180Z,5.27
2018-04-18T06:13:50.454Z,4.57
2018-04-18T06:16:17.725Z,5.50
2018-04-18T06:18:44.976Z,5.10
2018-04-18T06:21:12.251Z,5.70
2018-04-18T06:23:39.514Z,5.23
2018-04-18T06:26:06.796Z,4.93
2018-04-18T06:28:34.051Z,5.37
2018-04-18T06:31:01.321Z,4.20
2018-04-18T06:33:28.572Z,5.07
2018-04-18T06:35:55.848Z,5.07
2018-04-18T06:38:23.096Z,4.57
2018-04-18T06:40:50.369Z,4.60
2018-04-18T06:43:17.623Z,5.30
2018-04-18T06:45:44.901Z,5.33
2018-04-18T06:48:12.151Z,4.97
2018-04-18T06:50:39.434Z,5.90
2018-04-18T06:53:06.702Z,5.70
2018-04-18T06:55:33.960Z,6.87
2018-04-18T06:58:01.240Z,6.70
2018-04-18T07:00:28.490Z,6.60
2018-04-18T07:02:55.763Z,6.83
2018-04-18T07:05:23.027Z,7.20
2018-04-18T07:07:50.287Z,7.33
2018-04-18T07:10:17.547Z,7.67
2018-04-18T07:12:44.824Z,7.27
2018-04-18T07:15:12.083Z,7.00
2018-04-18T07:17:39.360Z,8.00
2018-04-18T07:20:06.628Z,7.47
2018-04-18T07:22:33.894Z,7.50
2018-04-18T07:25:01.175Z,6.40
2018-04-18T07:27:28.430Z,6.93
2018-04-18T07:29:55.677Z,6.83
2018-04-18T07:32:22.987Z,6.83
2018-04-18T07:34:50.238Z,7.60
2018-04-18T07:37:17.533Z,7.67
2018-04-18T07:39:44.790Z,7.10
2018-04-18T07:42:12.051Z,7.07
2018-04-18T07:44:39.324Z,5.97
2018-04-18T07:47:06.583Z,6.60
2018-04-18T07:49:33.861Z,5.87
2018-04-18T07:52:01.116Z,6.03
2018-04-18T07:54:28.391Z,5.27
2018-04-18T07:56:55.642Z,5.10
2018-04-18T07:59:22.919Z,5.30
2018-04-18T08:01:50.165Z,6.07
2018-04-18T08:04:17.442Z,5.20
2018-04-18T08:06:44.699Z,5.53
2018-04-18T08:09:11.970Z,5.53
2018-04-18T08:11:39.231Z,5.10
2018-04-18T08:14:06.499Z,5.07
2018-04-18T08:16:33.792Z,4.50
2018-04-18T08:19:01.064Z,4.50
2018-04-18T08:21:28.351Z,4.60
2018-04-18T08:23:55.616Z,4.40
2018-04-18T08:26:22.868Z,3.90
2018-04-18T08:28:50.312Z,4.67
2018-04-18T08:31:17.562Z,4.97
2018-04-18T08:33:44.823Z,4.17
2018-04-18T08:36:12.100Z,4.37
2018-04-18T08:38:39.356Z,3.90
2018-04-18T08:41:06.635Z,4.30
2018-04-18T08:43:33.892Z,3.83
2018-04-18T08:46:01.155Z,4.20
2018-04-18T08:48:28.410Z,3.50
2018-04-18T08:50:55.679Z,3.60
2018-04-18T08:53:22.927Z,3.60
2018-04-18T08:55:50.198Z,4.00
2018-04-18T08:58:17.464Z,3.93
2018-04-18T09:00:44.731Z,4.57
2018-04-18T09:03:11.999Z,4.20
2018-04-18T09:05:39.265Z,4.10
2018-04-18T09:08:06.531Z,3.13
2018-04-18T09:10:33.814Z,3.63
2018-04-18T09:13:01.059Z,3.33
2018-04-18T09:15:28.331Z,3.47
2018-04-18T09:17:55.591Z,3.53
2018-04-18T09:20:22.867Z,3.40
2018-04-18T09:22:50.120Z,3.17
2018-04-18T09:25:17.379Z,2.83
2018-04-18T09:27:44.628Z,2.77
2018-04-18T09:30:11.878Z,2.70
2018-04-18T09:32:39.150Z,3.07
2018-04-18T09:35:06.399Z,3.17
2018-04-18T09:37:33.666Z,3.33
2018-04-18T09:40:00.946Z,3.07
2018-04-18T09:42:28.234Z,3.60
2018-04-18T09:44:55.468Z,3.30
2018-04-18T09:47:22.745Z,3.40
2018-04-18T09:49:49.997Z,3.20
2018-04-18T09:52:17.258Z,3.30
2018-04-18T09:54:44.523Z,3.63
2018-04-18T09:57:11.790Z,3.43
2018-04-18T09:59:39.044Z,3.50
2018-04-18T10:02:12.192Z,3.73
2018-04-18T10:04:44.207Z,3.63
2018-04-18T10:07:11.483Z,3.97
2018-04-18T10:09:38.736Z,3.60
2018-04-18T10:12:06.015Z,3.90
2018-04-18T10:14:33.267Z,4.00
2018-04-18T10:17:00.542Z,3.53
2018-04-18T10:19:27.790Z,3.40
2018-04-18T10:21:55.104Z,3.83
2018-04-18T10:24:22.363Z,3.33
2018-04-18T10:26:49.603Z,3.40
2018-04-18T10:29:16.883Z,3.73
2018-04-18T10:31:44.130Z,3.50
2018-04-18T10:34:11.398Z,3.67
2018-04-18T10:36:38.651Z,3.53
2018-04-18T10:39:05.925Z,3.43
2018-04-18T10:41:33.171Z,3.37
2018-04-18T10:44:00.445Z,3.60
2018-04-18T10:46:27.698Z,3.50
2018-04-18T10:48:54.967Z,3.50
2018-04-18T10:51:22.236Z,3.93
2018-04-18T10:53:49.505Z,4.23
2018-04-18T10:56:16.763Z,3.57
2018-04-18T10:58:43.999Z,3.70
2018-04-18T11:01:11.276Z,3.63
2018-04-18T11:03:38.537Z,3.87
2018-04-18T11:06:05.799Z,3.60
2018-04-18T11:08:33.063Z,4.37
2018-04-18T11:11:00.339Z,3.43
2018-04-18T11:13:27.600Z,3.90
2018-04-18T11:15:54.871Z,3.90
2018-04-18T11:18:22.129Z,4.00
2018-04-18T11:20:49.392Z,4.13
2018-04-18T11:23:16.639Z,3.90
2018-04-18T11:25:43.914Z,3.83
2018-04-18T11:28:11.174Z,3.47
2018-04-18T11:30:38.472Z,3.90
2018-04-18T11:33:05.723Z,4.07
2018-04-18T11:35:32.990Z,3.77
2018-04-18T11:38:00.246Z,3.87
2018-04-18T11:40:27.519Z,4.30
2018-04-18T11:42:54.782Z,4.00
2018-04-18T11:45:22.035Z,3.70
2018-04-18T11:47:49.307Z,4.17
2018-04-18T11:50:16.565Z,3.33
2018-04-18T11:52:44.341Z,4.00
2018-04-18T11:55:11.571Z,3.80
2018-04-18T11:57:38.879Z,3.63
2018-04-18T12:00:06.091Z,3.70
2018-04-18T12:02:33.359Z,3.70
2018-04-18T12:05:00.614Z,4.10
2018-04-18T12:07:27.880Z,3.70
2018-04-18T12:09:55.128Z,4.03
2018-04-18T12:12:22.404Z,3.40
2018-04-18T12:14:49.728Z,3.50
2018-04-18T12:17:16.978Z,3.70
2018-04-18T12:19:44.223Z,3.77
2018-04-18T12:22:11.486Z,3.00
2018-04-18T12:24:38.745Z,3.20
2018-04-18T12:27:05.995Z,3.20
2018-04-18T12:29:33.259Z,2.80
2018-04-18T12:32:00.506Z,2.67
2018-04-18T12:37:01.576Z,3.27
2018-04-18T12:39:28.835Z,2.60
2018-04-18T12:41:56.096Z,2.67
2018-04-18T12:44:23.370Z,2.93
2018-04-18T12:46:50.615Z,2.90
2018-04-18T12:49:17.885Z,2.33
2018-04-18T12:51:45.136Z,3.00
2018-04-18T12:54:12.402Z,2.40
2018-04-18T12:56:39.652Z,2.70
2018-04-18T12:59:06.919Z,2.90
2018-04-18T13:01:34.171Z,2.60
2018-04-18T13:04:01.439Z,2.50
2018-04-18T13:06:28.734Z,2.60
2018-04-18T13:08:55.967Z,2.60
2018-04-18T13:11:23.223Z,2.20
2018-04-18T13:13:50.470Z,2.00
2018-04-18T13:16:17.743Z,3.10
2018-04-18T13:18:45.112Z,2.60
2018-04-18T13:21:12.367Z,2.20
2018-04-18T13:23:39.619Z,2.57
2018-04-18T13:26:06.887Z,2.40
2018-04-18T13:28:34.142Z,2.47
2018-04-18T13:31:01.414Z,2.67
2018-04-18T13:33:28.663Z,2.30
2018-04-18T13:35:55.929Z,2.30
2018-04-18T13:38:23.174Z,2.23
2018-04-18T13:40:50.448Z,3.07
2018-04-18T13:43:17.703Z,2.60
2018-04-18T13:45:44.970Z,2.50
2018-04-18T13:48:12.220Z,2.60
2018-04-18T13:50:39.493Z,2.67
2018-04-18T13:53:06.747Z,2.50
2018-04-18T13:55:34.010Z,2.20
2018-04-18T13:58:01.258Z,2.70
2018-04-18T14:00:28.511Z,2.97
2018-04-18T14:02:55.780Z,2.97
2018-04-18T14:05:23.035Z,3.10
2018-04-18T14:07:50.303Z,3.20
2018-04-18T14:10:17.546Z,2.90
2018-04-18T14:12:44.814Z,3.20
2018-04-18T14:15:12.160Z,3.20
2018-04-18T14:17:39.397Z,3.70
2018-04-18T14:20:06.655Z,3.60
2018-04-18T14:22:33.918Z,4.00
2018-04-18T14:25:01.180Z,2.83
2018-04-18T14:27:28.451Z,2.90
2018-04-18T14:29:55.712Z,3.50
2018-04-18T14:32:22.989Z,3.40
2018-04-18T14:34:50.236Z,3.00
2018-04-18T14:37:17.498Z,3.00
2018-04-18T14:39:44.747Z,3.50
2018-04-18T14:42:12.015Z,3.90
2018-04-18T14:44:39.266Z,3.70
2018-04-18T14:47:06.530Z,3.60
2018-04-18T14:49:33.802Z,4.00
2018-04-18T14:52:01.048Z,4.30
2018-04-18T14:54:28.319Z,3.87
2018-04-18T14:56:55.567Z,4.00
2018-04-18T14:59:22.871Z,4.17
2018-04-18T15:01:50.142Z,3.70
2018-04-18T15:04:17.405Z,4.20
2018-04-18T15:06:44.661Z,3.53
2018-04-18T15:09:11.928Z,4.70
2018-04-18T15:11:39.190Z,3.87
2018-04-18T15:14:06.459Z,3.33
2018-04-18T15:16:33.710Z,3.40
2018-04-18T15:19:00.978Z,3.90
2018-04-18T15:21:28.230Z,3.13
2018-04-18T15:23:55.520Z,3.50
2018-04-18T15:26:22.773Z,3.43
2018-04-18T15:28:50.039Z,3.70
2018-04-18T15:31:17.296Z,4.10
2018-04-18T15:33:44.575Z,3.67
2018-04-18T15:36:11.811Z,3.27
2018-04-18T15:38:39.076Z,3.97
2018-04-18T15:41:06.328Z,3.70
2018-04-18T15:43:33.590Z,3.70
2018-04-18T15:46:00.862Z,3.50
2018-04-18T15:48:28.114Z,3.43
2018-04-18T15:50:55.382Z,3.40
2018-04-18T15:53:22.627Z,3.37
2018-04-18T15:55:49.902Z,3.40
2018-04-18T15:58:17.150Z,3.10
2018-04-18T16:00:44.419Z,2.93
2018-04-18T16:03:11.675Z,3.57
2018-04-18T16:05:38.943Z,3.50
2018-04-18T16:08:06.194Z,3.80
2018-04-18T16:10:33.463Z,3.07
2018-04-18T16:13:00.714Z,3.57
2018-04-18T16:15:27.991Z,3.30
2018-04-18T16:17:55.246Z,3.17
2018-04-18T16:20:22.517Z,3.00
2018-04-18T16:22:49.759Z,3.00
2018-04-18T16:25:17.015Z,2.83
2018-04-18T16:27:44.288Z,3.10
2018-04-18T16:30:17.543Z,3.10
2018-04-18T16:32:44.809Z,3.13
2018-04-18T16:35:12.062Z,3.07
2018-04-18T16:37:39.331Z,2.73
2018-04-18T16:40:06.576Z,2.90
2018-04-18T16:42:33.839Z,3.03
2018-04-18T16:45:01.089Z,2.83
2018-04-18T16:47:28.374Z,2.60
2018-04-18T16:49:55.622Z,2.60
2018-04-18T16:52:22.875Z,2.77
2018-04-18T16:54:50.139Z,3.00
2018-04-18T16:57:17.389Z,3.03
2018-04-18T16:59:44.654Z,3.00
2018-04-18T17:02:11.903Z,2.73
2018-04-18T17:04:39.165Z,2.57
2018-04-18T17:07:06.422Z,2.73
2018-04-18T17:09:33.686Z,2.47
2018-04-18T17:12:00.945Z,2.80
2018-04-18T17:14:28.212Z,2.50
2018-04-18T17:16:55.460Z,2.70
2018-04-18T17:19:22.735Z,3.03
2018-04-18T17:21:49.980Z,2.63
2018-04-18T17:24:17.247Z,3.03
2018-04-18T17:26:44.495Z,2.50
2018-04-18T17:29:11.762Z,2.80
2018-04-18T17:31:39.019Z,2.13
2018-04-18T17:34:06.282Z,2.70
2018-04-18T17:36:33.530Z,2.77
2018-04-18T17:39:00.807Z,2.50
2018-04-18T17:41:28.059Z,2.87
2018-04-18T17:43:55.316Z,2.83
2018-04-18T17:46:22.582Z,2.60
2018-04-18T17:48:49.826Z,2.87
2018-04-18T17:51:17.099Z,3.20
2018-04-18T17:53:44.351Z,3.27
2018-04-18T17:56:11.619Z,3.40
2018-04-18T17:58:38.871Z,3.10
2018-04-18T18:01:06.135Z,2.90
2018-04-18T18:03:33.389Z,3.20
2018-04-18T18:06:00.936Z,3.20
2018-04-18T18:08:29.031Z,3.17
2018-04-18T18:10:56.303Z,3.40
2018-04-18T18:13:23.564Z,3.10
2018-04-18T18:15:50.822Z,3.17
2018-04-18T18:18:18.071Z,3.00
2018-04-18T18:20:45.346Z,3.20
2018-04-18T18:23:12.602Z,3.30
2018-04-18T18:25:39.867Z,3.30
2018-04-18T18:28:07.122Z,3.43
2018-04-18T18:30:34.386Z,3.70
2018-04-18T18:33:01.644Z,3.10
2018-04-18T18:35:28.911Z,3.17
2018-04-18T18:37:56.160Z,3.60
2018-04-18T18:40:23.416Z,3.87
2018-04-18T18:42:50.691Z,3.30
2018-04-18T18:45:17.946Z,3.37
2018-04-18T18:47:45.211Z,3.43
2018-04-18T18:50:12.463Z,3.20
2018-04-18T18:52:39.732Z,3.80
2018-04-18T18:55:06.983Z,3.60
2018-04-18T18:57:34.260Z,3.23
2018-04-18T19:00:01.588Z,3.50
2018-04-18T19:02:28.787Z,3.27
2018-04-18T19:04:56.031Z,3.57
2018-04-18T19:07:23.299Z,3.67
2018-04-18T19:09:50.539Z,3.50
2018-04-18T19:12:17.806Z,3.47
2018-04-18T19:14:45.059Z,3.30
2018-04-18T19:17:12.323Z,3.30
2018-04-18T19:19:39.576Z,3.13
2018-04-18T19:22:06.835Z,3.30
2018-04-18T19:24:34.084Z,3.17
2018-04-18T19:27:01.338Z,3.47
2018-04-18T19:29:28.607Z,3.33
2018-04-18T19:31:55.855Z,3.30
2018-04-18T19:34:23.170Z,3.23
2018-04-18T19:36:50.388Z,2.87
2018-04-18T19:39:17.648Z,3.33
2018-04-18T19:41:44.895Z,3.47
2018-04-18T19:44:12.165Z,3.30
2018-04-18T19:46:39.419Z,3.60
2018-04-18T19:49:06.679Z,3.97
2018-04-18T19:51:33.931Z,3.40
2018-04-18T19:54:01.212Z,3.30
2018-04-18T19:56:28.491Z,3.30
2018-04-18T19:58:55.747Z,3.30
2018-04-18T20:01:23.020Z,3.27
2018-04-18T20:03:50.290Z,3.07
2018-04-18T20:06:17.552Z,3.30
2018-04-18T20:08:44.799Z,3.10
2018-04-18T20:11:12.072Z,3.60
2018-04-18T20:13:39.323Z,3.47
2018-04-18T20:16:06.599Z,3.57
2018-04-18T20:18:33.843Z,2.60
2018-04-18T20:21:01.116Z,3.37
2018-04-18T20:23:28.363Z,3.50
2018-04-18T20:25:55.635Z,3.63
2018-04-18T20:28:22.941Z,4.13
2018-04-18T20:30:50.147Z,3.70
2018-04-18T20:33:17.399Z,3.83
2018-04-18T20:35:44.679Z,3.93
2018-04-18T20:38:11.928Z,4.00
2018-04-18T20:40:39.180Z,4.60
2018-04-18T20:43:06.447Z,3.40
2018-04-18T20:45:33.700Z,3.60
2018-04-18T20:48:00.982Z,3.83
2018-04-18T20:50:28.232Z,4.10
2018-04-18T20:52:55.494Z,4.37
2018-04-18T20:55:22.758Z,4.00
2018-04-18T20:57:50.024Z,3.93
2018-04-18T21:00:17.279Z,3.90
2018-04-18T21:02:44.544Z,3.77
2018-04-18T21:05:11.880Z,3.70
2018-04-18T21:07:39.050Z,4.07
2018-04-18T21:10:06.317Z,3.87
2018-04-18T21:12:33.565Z,3.83
2018-04-18T21:15:00.844Z,4.63
2018-04-18T21:17:28.103Z,4.13
2018-04-18T21:20:15.799Z,4.00
2018-04-18T21:23:02.083Z,4.20
2018-04-18T21:25:29.326Z,4.60
2018-04-18T21:27:56.578Z,4.07
2018-04-18T21:30:23.842Z,4.07
2018-04-18T21:32:51.095Z,4.20
2018-04-18T21:35:18.371Z,4.83
2018-04-18T21:37:45.654Z,4.63
2018-04-18T21:40:12.925Z,4.67
2018-04-18T21:42:40.163Z,4.53
2018-04-18T21:45:07.436Z,4.87
2018-04-18T21:47:34.686Z,4.00
2018-04-18T21:50:01.957Z,4.20
2018-04-18T21:52:29.210Z,4.43
2018-04-18T21:54:56.477Z,3.93
2018-04-18T21:57:23.723Z,4.10
2018-04-18T21:59:50.999Z,4.27
2018-04-18T22:02:18.251Z,4.30
2018-04-18T22:04:45.506Z,4.07
2018-04-18T22:07:12.782Z,4.50
2018-04-18T22:09:40.035Z,4.30
2018-04-18T22:12:07.300Z,4.43
2018-04-18T22:14:34.688Z,4.17
2018-04-18T22:17:02.040Z,4.30
2018-04-18T22:19:29.200Z,4.10
2018-04-18T22:21:56.463Z,3.90
2018-04-18T22:24:23.725Z,4.10
2018-04-18T22:26:50.986Z,4.60
2018-04-18T22:29:18.246Z,3.93
2018-04-18T22:31:45.514Z,3.73
2018-04-18T22:34:12.768Z,3.80
2018-04-18T22:36:40.045Z,4.17
2018-04-18T22:39:07.300Z,4.20
2018-04-18T22:41:34.784Z,4.40
2018-04-18T22:44:02.039Z,4.37
2018-04-18T22:46:29.317Z,4.37
2018-04-18T22:48:56.630Z,4.40
2018-04-18T22:51:23.879Z,4.47
2018-04-18T22:53:51.152Z,4.53
2018-04-18T22:56:18.509Z,4.50
2018-04-18T22:58:45.766Z,4.87
2018-04-18T23:01:13.098Z,4.13
2018-04-18T23:03:40.363Z,4.40
2018-04-18T23:06:07.718Z,4.20
2018-04-18T23:08:34.982Z,4.30
2018-04-18T23:11:02.232Z,3.90
2018-04-18T23:13:29.503Z,4.47
2018-04-18T23:15:56.751Z,4.10
2018-04-18T23:18:24.035Z,4.53
2018-04-18T23:20:51.294Z,4.63
2018-04-18T23:23:18.549Z,4.23
2018-04-18T23:25:45.811Z,4.73
2018-04-18T23:28:13.063Z,5.33
2018-04-18T23:30:40.328Z,4.30
2018-04-18T23:33:07.584Z,4.13
2018-04-18T23:35:34.852Z,4.63
2018-04-18T23:38:02.100Z,4.40
2018-04-18T23:40:29.362Z,4.20
2018-04-18T23:42:56.611Z,4.70
2018-04-18T23:45:23.875Z,4.20
2018-04-18T23:47:51.134Z,4.33
2018-04-18T23:50:18.411Z,4.60
2018-04-18T23:52:45.663Z,4.90
2018-04-18T23:55:12.942Z,4.23
2018-04-18T23:57:40.230Z,4.67
